createdAt,value
2022-10-13T00:01:43.528Z,99141.81
2022-10-13T00:04:10.397Z,99128.22
2022-10-13T00:06:36.743Z,99132.31
2022-10-13T00:09:03.707Z,99127.97
2022-10-13T00:11:30.831Z,99134.47
2022-10-13T00:13:59.605Z,99137.34
2022-10-13T00:16:27.012Z,99137.66
2022-10-13T00:18:53.488Z,99147.63
2022-10-13T00:21:23.610Z,99146.44
2022-10-13T00:23:51.397Z,99147.25
2022-10-13T00:26:18.115Z,99148.06
2022-10-13T00:28:48.457Z,99148.06
2022-10-13T00:31:30.902Z,99146.44
2022-10-13T00:33:59.797Z,99154.91
2022-10-13T00:36:28.983Z,99154.59
2022-10-13T00:38:56.915Z,99153.75
2022-10-13T00:41:23.255Z,99152.34
2022-10-13T00:44:07.343Z,99153.97
2022-10-13T00:46:36.897Z,99150.75
2022-10-13T00:49:23.081Z,99148.31
2022-10-13T00:51:50.601Z,99143.69
2022-10-13T00:54:22.632Z,99133.91
2022-10-13T00:56:51.376Z,99133.13
2022-10-13T00:59:28.915Z,99137.19
2022-10-13T01:01:57.720Z,99141.00
2022-10-13T01:04:27.872Z,99135.03
2022-10-13T01:06:55.671Z,99145.81
2022-10-13T01:09:22.103Z,99140.09
2022-10-13T01:11:55.320Z,99138.22
2022-10-13T01:14:50.906Z,99131.66
2022-10-13T01:17:51.090Z,99135.72
2022-10-13T01:20:32.669Z,99128.88
2022-10-13T01:23:17.364Z,99126.69
2022-10-13T01:26:14.813Z,99121.78
2022-10-13T01:28:59.964Z,99126.09
2022-10-13T01:31:52.024Z,99126.09
2022-10-13T01:34:38.539Z,99129.34
2022-10-13T01:37:30.184Z,99124.75
2022-10-13T01:40:17.739Z,99124.75
2022-10-13T01:43:02.292Z,99112.47
2022-10-13T01:45:35.580Z,99119.50
2022-10-13T01:48:04.564Z,99119.50
2022-10-13T01:50:32.801Z,99114.09
2022-10-13T01:53:02.176Z,99113.53
2022-10-13T01:55:29.683Z,99106.69
2022-10-13T01:57:56.243Z,99105.81
2022-10-13T02:00:22.889Z,99099.28
2022-10-13T02:03:09.900Z,99100.88
2022-10-13T02:05:51.587Z,99101.41
2022-10-13T02:08:38.067Z,99099.78
2022-10-13T02:11:15.601Z,99094.94
2022-10-13T02:13:49.191Z,99093.84
2022-10-13T02:16:16.231Z,99099.78
2022-10-13T02:18:43.795Z,99101.41
2022-10-13T02:21:10.521Z,99100.28
2022-10-13T02:23:36.943Z,99104.38
2022-10-13T02:26:03.809Z,99100.53
2022-10-13T02:28:30.332Z,99107.09
2022-10-13T02:30:56.836Z,99098.94
2022-10-13T02:33:23.183Z,99109.25
2022-10-13T02:35:49.699Z,99109.56
2022-10-13T02:38:16.090Z,99108.75
2022-10-13T02:40:42.483Z,99111.47
2022-10-13T02:43:08.878Z,99110.38
2022-10-13T02:45:35.253Z,99113.31
2022-10-13T02:48:01.730Z,99113.84
2022-10-13T02:50:28.286Z,99103.47
2022-10-13T02:52:54.749Z,99104.81
2022-10-13T02:55:21.315Z,99101.00
2022-10-13T02:57:47.671Z,99103.41
2022-10-13T03:00:14.743Z,99099.09
2022-10-13T03:02:42.134Z,99104.22
2022-10-13T03:05:09.477Z,99096.34
2022-10-13T03:07:36.058Z,99108.34
2022-10-13T03:10:02.481Z,99104.00
2022-10-13T03:12:28.839Z,99102.59
2022-10-13T03:14:55.191Z,99097.97
2022-10-13T03:17:21.652Z,99102.59
2022-10-13T03:19:48.265Z,99097.97
2022-10-13T03:22:15.408Z,99094.16
2022-10-13T03:24:42.459Z,99089.25
2022-10-13T03:27:09.292Z,99092.78
2022-10-13T03:29:35.683Z,99088.16
2022-10-13T03:32:02.083Z,99074.53
2022-10-13T03:34:28.447Z,99081.91
2022-10-13T03:36:54.835Z,99075.91
2022-10-13T03:39:22.063Z,99069.16
2022-10-13T03:41:48.551Z,99065.13
2022-10-13T03:44:14.898Z,99057.25
2022-10-13T03:46:41.324Z,99063.78
2022-10-13T03:49:07.739Z,99056.22
2022-10-13T03:51:34.233Z,99058.41
2022-10-13T03:54:00.588Z,99060.41
2022-10-13T03:56:28.021Z,99060.16
2022-10-13T03:58:59.688Z,99062.44
2022-10-13T04:01:29.048Z,99067.66
2022-10-13T04:03:56.682Z,99068.50
2022-10-13T04:06:25.028Z,99071.28
2022-10-13T04:08:52.272Z,99072.91
2022-10-13T04:11:19.743Z,99069.06
2022-10-13T04:13:46.381Z,99066.91
2022-10-13T04:16:24.969Z,99077.47
2022-10-13T04:19:00.458Z,99073.34
2022-10-13T04:21:28.675Z,99066.81
2022-10-13T04:23:57.216Z,99075.50
2022-10-13T04:26:25.789Z,99067.56
2022-10-13T04:28:55.360Z,99067.00
2022-10-13T04:31:23.296Z,99061.78
2022-10-13T04:33:50.246Z,99064.19
2022-10-13T04:36:18.283Z,99069.63
2022-10-13T04:38:44.807Z,99066.66
2022-10-13T04:41:12.552Z,99064.19
2022-10-13T04:43:38.916Z,99071.03
2022-10-13T04:46:14.015Z,99067.81
2022-10-13T04:48:41.022Z,99063.75
2022-10-13T04:51:10.166Z,99060.81
2022-10-13T04:53:36.775Z,99057.84
2022-10-13T04:56:23.104Z,99052.22
2022-10-13T04:58:49.737Z,99057.41
2022-10-13T05:01:21.695Z,99054.97
2022-10-13T05:03:53.456Z,99053.13
2022-10-13T05:06:27.091Z,99047.75
2022-10-13T05:08:53.535Z,99042.09
2022-10-13T05:11:20.501Z,99038.84
2022-10-13T05:13:48.161Z,99036.69
2022-10-13T05:16:16.733Z,99040.53
2022-10-13T05:18:43.440Z,99053.00
2022-10-13T05:21:12.788Z,99054.09
2022-10-13T05:23:40.331Z,99060.09
2022-10-13T05:26:09.759Z,99054.66
2022-10-13T05:28:36.504Z,99054.06
2022-10-13T05:31:21.335Z,99052.66
2022-10-13T05:33:48.581Z,99054.53
2022-10-13T05:36:17.471Z,99061.00
2022-10-13T05:38:43.908Z,99062.03
2022-10-13T05:41:12.776Z,99062.28
2022-10-13T05:43:40.941Z,99067.91
2022-10-13T05:46:08.017Z,99061.91
2022-10-13T05:48:34.982Z,99070.59
2022-10-13T05:51:05.303Z,99061.31
2022-10-13T05:53:34.809Z,99071.63
2022-10-13T05:56:07.006Z,99064.00
2022-10-13T05:58:43.141Z,99066.41
2022-10-13T06:01:13.405Z,99071.28
2022-10-13T06:03:42.088Z,99060.09
2022-10-13T06:06:09.503Z,99038.88
2022-10-13T06:08:36.990Z,99047.53
2022-10-13T06:11:05.419Z,99036.66
2022-10-13T06:13:31.808Z,99037.19
2022-10-13T06:15:58.155Z,99037.19
2022-10-13T06:18:24.843Z,99039.31
2022-10-13T06:20:51.300Z,99040.34
2022-10-13T06:23:17.728Z,99041.97
2022-10-13T06:25:51.787Z,99043.56
2022-10-13T06:28:19.199Z,99046.53
2022-10-13T06:30:54.635Z,99050.28
2022-10-13T06:33:22.125Z,99040.72
2022-10-13T06:35:48.717Z,99048.91
2022-10-13T06:38:15.059Z,99055.94
2022-10-13T06:40:42.128Z,99057.06
2022-10-13T06:43:09.597Z,99055.94
2022-10-13T06:45:39.362Z,99055.66
2022-10-13T06:48:05.928Z,99051.53
2022-10-13T06:50:32.334Z,99050.13
2022-10-13T06:52:58.692Z,99052.06
2022-10-13T06:55:25.063Z,99040.56
2022-10-13T06:57:52.383Z,99050.84
2022-10-13T07:00:18.927Z,99047.06
2022-10-13T07:02:45.385Z,99041.31
2022-10-13T07:05:11.934Z,99043.72
2022-10-13T07:07:38.271Z,99042.63
2022-10-13T07:10:04.947Z,99042.06
2022-10-13T07:12:31.296Z,99044.16
2022-10-13T07:14:57.634Z,99047.38
2022-10-13T07:17:24.174Z,99048.44
2022-10-13T07:19:51.355Z,99047.00
2022-10-13T07:22:17.868Z,99051.88
2022-10-13T07:24:44.774Z,99048.28
2022-10-13T07:27:11.168Z,99044.47
2022-10-13T07:29:37.608Z,99047.69
2022-10-13T07:32:04.172Z,99052.50
2022-10-13T07:34:30.569Z,99051.44
2022-10-13T07:36:56.943Z,99042.66
2022-10-13T07:39:23.371Z,99038.25
2022-10-13T07:41:51.320Z,99040.09
2022-10-13T07:44:18.052Z,99041.94
2022-10-13T07:46:44.718Z,99046.19
2022-10-13T07:49:15.251Z,99040.94
2022-10-13T07:51:43.086Z,99042.78
2022-10-13T07:54:10.388Z,99043.50
2022-10-13T07:56:37.438Z,99043.69
2022-10-13T07:59:05.453Z,99046.84
2022-10-13T08:01:32.127Z,99042.59
2022-10-13T08:03:59.200Z,99034.34
2022-10-13T08:06:27.468Z,99036.19
2022-10-13T08:08:53.859Z,99033.16
2022-10-13T08:11:20.338Z,99030.34
2022-10-13T08:13:51.226Z,99030.53
2022-10-13T08:16:18.188Z,99030.53
2022-10-13T08:18:45.978Z,99028.31
2022-10-13T08:21:57.457Z,99023.69
2022-10-13T08:24:04.636Z,99020.16
2022-10-13T08:26:32.393Z,99011.97
2022-10-13T08:31:45.495Z,99013.56
2022-10-13T08:34:12.575Z,99008.94
2022-10-13T08:36:39.584Z,99010.75
2022-10-13T08:39:06.453Z,99015.28
2022-10-13T08:41:37.524Z,99014.38
2022-10-13T08:44:59.230Z,98997.63
2022-10-13T08:47:06.939Z,98999.31
2022-10-13T08:49:33.870Z,99005.06
2022-10-13T08:52:05.298Z,99008.66
2022-10-13T08:54:33.281Z,99002.00
2022-10-13T08:59:27.384Z,98999.38
2022-10-13T09:01:55.472Z,99006.53
2022-10-13T09:04:36.074Z,98987.78
2022-10-13T09:07:07.031Z,98993.63
2022-10-13T09:09:33.505Z,98995.94
2022-10-13T09:12:00.332Z,98994.88
2022-10-13T09:14:31.576Z,98991.69
2022-10-13T09:17:16.307Z,98989.97
2022-10-13T09:19:43.801Z,98990.47
2022-10-13T09:22:22.237Z,99001.91
2022-10-13T09:25:07.805Z,99001.13
2022-10-13T09:27:59.177Z,98997.47
2022-10-13T09:31:28.487Z,99001.50
2022-10-13T09:34:00.923Z,99001.31
2022-10-13T09:36:28.464Z,98997.97
2022-10-13T09:39:16.437Z,99005.53
2022-10-13T09:41:43.829Z,98997.16
2022-10-13T09:44:17.504Z,98999.09
2022-10-13T09:46:59.184Z,98995.34
2022-10-13T09:49:40.270Z,98991.81
2022-10-13T09:52:29.812Z,98994.25
2022-10-13T09:55:00.930Z,99004.25
2022-10-13T09:57:39.471Z,99003.13
2022-10-13T10:00:15.302Z,99010.38
2022-10-13T10:03:05.489Z,98994.84
2022-10-13T10:05:44.936Z,98998.56
2022-10-13T10:08:33.954Z,98990.72
2022-10-13T10:11:12.479Z,98988.16
2022-10-13T10:13:38.963Z,98988.53
2022-10-13T10:16:20.505Z,98987.13
2022-10-13T10:18:57.743Z,98992.88
2022-10-13T10:21:27.981Z,98979.03
2022-10-13T10:23:58.283Z,98984.50
2022-10-13T10:26:47.087Z,98985.09
2022-10-13T10:29:26.187Z,98983.13
2022-10-13T10:32:11.211Z,98987.63
2022-10-13T10:34:46.552Z,98990.97
2022-10-13T10:37:40.549Z,98979.56
2022-10-13T10:40:38.021Z,98976.19
2022-10-13T10:43:13.685Z,98966.38
2022-10-13T10:45:40.728Z,98968.00
2022-10-13T10:48:32.961Z,98964.13
2022-10-13T10:51:01.092Z,98964.13
2022-10-13T10:53:40.426Z,98964.13
2022-10-13T10:56:15.538Z,98963.03
2022-10-13T10:59:05.115Z,98952.59
2022-10-13T11:01:45.161Z,98942.03
2022-10-13T11:04:20.827Z,98935.47
2022-10-13T11:06:47.572Z,98935.03
2022-10-13T11:09:14.023Z,98932.97
2022-10-13T11:11:42.223Z,98930.88
2022-10-13T11:14:08.709Z,98928.63
2022-10-13T11:16:40.242Z,98922.34
2022-10-13T11:19:29.710Z,98921.06
2022-10-13T11:21:59.011Z,98922.69
2022-10-13T11:24:39.244Z,98912.22
2022-10-13T11:27:17.579Z,98903.88
2022-10-13T11:29:47.257Z,98911.75
2022-10-13T11:32:36.765Z,98907.75
2022-10-13T11:35:05.912Z,98909.88
2022-10-13T11:37:51.733Z,98901.66
2022-10-13T11:40:35.122Z,98900.06
2022-10-13T11:43:09.815Z,98894.75
2022-10-13T11:46:14.677Z,98890.53
2022-10-13T11:49:02.786Z,98889.91
2022-10-13T11:51:38.550Z,98876.06
2022-10-13T11:54:34.561Z,98875.59
2022-10-13T11:57:01.419Z,98869.16
2022-10-13T11:59:33.687Z,98874.97
2022-10-13T12:02:14.517Z,98873.50
2022-10-13T12:04:46.806Z,98876.56
2022-10-13T12:07:15.741Z,98861.63
2022-10-13T12:09:51.563Z,98857.06
2022-10-13T12:12:24.535Z,98859.66
2022-10-13T12:14:54.456Z,98856.75
2022-10-13T12:17:31.797Z,98853.22
2022-10-13T12:20:20.334Z,98847.41
2022-10-13T12:22:51.170Z,98849.19
2022-10-13T12:25:19.639Z,98845.97
2022-10-13T12:27:50.091Z,98849.66
2022-10-13T12:30:25.290Z,98838.53
2022-10-13T12:32:54.353Z,98823.25
2022-10-13T12:35:32.513Z,98824.00
2022-10-13T12:38:13.173Z,98826.47
2022-10-13T12:40:40.694Z,98813.00
2022-10-13T12:43:07.219Z,98810.53
2022-10-13T12:45:34.880Z,98811.41
2022-10-13T12:48:01.404Z,98807.38
2022-10-13T12:50:36.899Z,98801.47
2022-10-13T12:53:12.019Z,98808.75
2022-10-13T12:55:55.083Z,98804.84
2022-10-13T12:58:28.965Z,98795.75
2022-10-13T13:00:58.126Z,98798.56
2022-10-13T13:03:29.090Z,98798.50
2022-10-13T13:06:31.859Z,98785.38
2022-10-13T13:09:15.672Z,98788.75
2022-10-13T13:11:42.007Z,98781.84
2022-10-13T13:14:35.565Z,98784.25
2022-10-13T13:17:09.290Z,98794.25
2022-10-13T13:19:36.618Z,98788.75
2022-10-13T13:22:05.687Z,98787.06
2022-10-13T13:24:40.114Z,98791.81
2022-10-13T13:27:19.916Z,98781.72
2022-10-13T13:29:46.943Z,98776.75
2022-10-13T13:32:19.834Z,98775.97
2022-10-13T13:34:46.898Z,98786.34
2022-10-13T13:37:24.590Z,98784.13
2022-10-13T13:39:51.080Z,98791.72
2022-10-13T13:42:17.749Z,98794.00
2022-10-13T13:44:44.171Z,98787.69
2022-10-13T13:47:16.953Z,98788.03
2022-10-13T13:49:43.648Z,98784.81
2022-10-13T13:52:10.071Z,98788.81
2022-10-13T13:54:36.540Z,98783.16
2022-10-13T13:57:03.188Z,98777.56
2022-10-13T13:59:29.580Z,98789.78
2022-10-13T14:01:56.062Z,98787.84
2022-10-13T14:04:22.606Z,98782.19
2022-10-13T14:06:49.020Z,98782.88
2022-10-13T14:09:15.442Z,98775.97
2022-10-13T14:11:41.823Z,98775.34
2022-10-13T14:14:08.230Z,98775.69
2022-10-13T14:16:34.611Z,98778.28
2022-10-13T14:19:01.060Z,98769.91
2022-10-13T14:21:27.462Z,98774.13
2022-10-13T14:23:53.875Z,98776.06
2022-10-13T14:26:20.332Z,98772.50
2022-10-13T14:28:46.984Z,98766.22
2022-10-13T14:31:13.504Z,98758.00
2022-10-13T14:33:39.892Z,98761.88
2022-10-13T14:36:07.417Z,98767.03
2022-10-13T14:38:34.524Z,98757.19
2022-10-13T14:41:02.460Z,98755.13
2022-10-13T14:43:29.419Z,98762.03
2022-10-13T14:45:56.220Z,98763.34
2022-10-13T14:48:24.760Z,98760.78
2022-10-13T14:50:52.692Z,98768.69
2022-10-13T14:53:19.132Z,98764.19
2022-10-13T14:55:45.543Z,98761.63
2022-10-13T14:58:12.271Z,98760.00
2022-10-13T15:00:38.887Z,98770.00
2022-10-13T15:03:05.299Z,98765.50
2022-10-13T15:05:31.872Z,98761.34
2022-10-13T15:07:58.284Z,98766.03
2022-10-13T15:10:24.778Z,98778.09
2022-10-13T15:12:51.188Z,98779.53
2022-10-13T15:15:17.703Z,98777.94
2022-10-13T15:17:44.076Z,98778.56
2022-10-13T15:20:10.771Z,98766.34
2022-10-13T15:22:37.405Z,98756.50
2022-10-13T15:25:07.758Z,98774.56
2022-10-13T15:27:39.310Z,98772.28
2022-10-13T15:30:08.839Z,98776.16
2022-10-13T15:32:35.326Z,98771.00
2022-10-13T15:35:02.020Z,98771.31
2022-10-13T15:37:28.377Z,98771.63
2022-10-13T15:39:57.398Z,98775.31
2022-10-13T15:42:24.304Z,98775.94
2022-10-13T15:45:08.781Z,98775.47
2022-10-13T15:47:36.419Z,98773.06
2022-10-13T15:50:03.648Z,98776.75
2022-10-13T15:52:34.690Z,98780.13
2022-10-13T15:55:02.025Z,98776.88
2022-10-13T15:57:28.505Z,98777.53
2022-10-13T15:59:54.884Z,98789.59
2022-10-13T16:02:23.209Z,98783.66
2022-10-13T16:04:50.640Z,98783.13
2022-10-13T16:07:18.407Z,98783.31
2022-10-13T16:09:45.259Z,98773.00
2022-10-13T16:12:11.693Z,98776.66
2022-10-13T16:14:38.095Z,98773.13
2022-10-13T16:17:04.466Z,98784.06
2022-10-13T16:19:30.992Z,98780.38
2022-10-13T16:21:57.435Z,98780.06
2022-10-13T16:24:23.884Z,98781.78
2022-10-13T16:26:50.292Z,98772.31
2022-10-13T16:29:16.912Z,98772.78
2022-10-13T16:31:43.358Z,98793.34
2022-10-13T16:34:10.609Z,98806.47
2022-10-13T16:36:37.136Z,98796.38
2022-10-13T16:39:03.607Z,98801.03
2022-10-13T16:41:30.017Z,98794.28
2022-10-13T16:43:56.597Z,98793.00
2022-10-13T16:46:23.703Z,98780.47
2022-10-13T16:48:50.188Z,98779.47
2022-10-13T16:51:22.529Z,98788.16
2022-10-13T16:54:03.908Z,98786.22
2022-10-13T16:56:31.793Z,98788.16
2022-10-13T16:59:04.548Z,98794.25
2022-10-13T17:01:32.396Z,98799.19
2022-10-13T17:03:59.718Z,98785.88
2022-10-13T17:06:28.465Z,98775.59
2022-10-13T17:08:57.743Z,98785.19
2022-10-13T17:11:30.373Z,98784.72
2022-10-13T17:13:58.038Z,98786.63
2022-10-13T17:16:25.284Z,98784.22
2022-10-13T17:18:51.755Z,98789.22
2022-10-13T17:21:18.337Z,98786.47
2022-10-13T17:23:48.678Z,98788.69
2022-10-13T17:26:17.438Z,98780.81
2022-10-13T17:28:44.548Z,98784.19
2022-10-13T17:31:20.651Z,98786.13
2022-10-13T17:33:48.442Z,98775.81
2022-10-13T17:36:16.726Z,98775.00
2022-10-13T17:38:43.762Z,98768.28
2022-10-13T17:41:11.184Z,98775.34
2022-10-13T17:43:39.011Z,98776.44
2022-10-13T17:46:35.026Z,98781.91
2022-10-13T17:48:59.396Z,98779.97
2022-10-13T17:51:25.971Z,98783.31
2022-10-13T17:53:52.881Z,98786.06
2022-10-13T17:56:21.881Z,98787.97
2022-10-13T17:58:50.274Z,98783.63
2022-10-13T18:01:19.714Z,98781.56
2022-10-13T18:03:49.814Z,98777.19
2022-10-13T18:06:17.020Z,98785.09
2022-10-13T18:08:43.839Z,98787.00
2022-10-13T18:11:16.902Z,98789.75
2022-10-13T18:13:44.999Z,98789.50
2022-10-13T18:16:22.213Z,98791.94
2022-10-13T18:18:50.054Z,98785.97
2022-10-13T18:21:19.542Z,98784.69
2022-10-13T18:23:46.281Z,98783.88
2022-10-13T18:26:15.258Z,98781.97
2022-10-13T18:28:43.594Z,98782.75
2022-10-13T18:31:13.876Z,98778.91
2022-10-13T18:33:40.902Z,98790.94
2022-10-13T18:36:15.153Z,98793.16
2022-10-13T18:38:41.718Z,98792.06
2022-10-13T18:41:08.252Z,98789.63
2022-10-13T18:43:34.819Z,98788.03
2022-10-13T18:46:02.379Z,98792.69
2022-10-13T18:48:28.893Z,98787.22
2022-10-13T18:50:55.323Z,98796.53
2022-10-13T18:53:21.799Z,98790.28
2022-10-13T18:55:48.405Z,98784.34
2022-10-13T18:58:14.856Z,98800.84
2022-10-13T19:00:41.290Z,98791.38
2022-10-13T19:03:08.227Z,98783.22
2022-10-13T19:05:39.317Z,98786.25
2022-10-13T19:08:09.317Z,98784.63
2022-10-13T19:10:36.448Z,98779.00
2022-10-13T19:13:03.650Z,98778.50
2022-10-13T19:15:30.206Z,98784.25
2022-10-13T19:17:56.603Z,98785.38
2022-10-13T19:20:23.032Z,98785.38
2022-10-13T19:22:49.474Z,98786.50
2022-10-13T19:25:15.868Z,98777.03
2022-10-13T19:27:42.279Z,98772.97
2022-10-13T19:30:09.381Z,98777.31
2022-10-13T19:32:38.591Z,98778.44
2022-10-13T19:35:05.672Z,98780.03
2022-10-13T19:37:32.186Z,98784.41
2022-10-13T19:39:58.580Z,98779.22
2022-10-13T19:42:25.009Z,98783.88
2022-10-13T19:44:51.379Z,98782.28
2022-10-13T19:47:18.115Z,98778.44
2022-10-13T19:49:44.735Z,98794.00
2022-10-13T19:52:11.134Z,98794.00
2022-10-13T19:54:37.506Z,98795.91
2022-10-13T19:57:03.909Z,98797.53
2022-10-13T19:59:30.394Z,98798.16
2022-10-13T20:01:57.412Z,98796.84
2022-10-13T20:04:24.789Z,98798.16
2022-10-13T20:06:51.405Z,98800.06
2022-10-13T20:09:19.423Z,98803.91
2022-10-13T20:11:48.161Z,98801.47
2022-10-13T20:14:14.913Z,98810.19
2022-10-13T20:16:41.817Z,98802.59
2022-10-13T20:19:08.252Z,98792.00
2022-10-13T20:21:34.636Z,98801.31
2022-10-13T20:24:01.034Z,98795.66
2022-10-13T20:26:27.480Z,98799.50
2022-10-13T20:28:54.906Z,98807.69
2022-10-13T20:31:22.704Z,98811.53
2022-10-13T20:33:54.140Z,98812.66
2022-10-13T20:36:20.804Z,98818.69
2022-10-13T20:38:49.099Z,98820.94
2022-10-13T20:41:27.433Z,98822.38
2022-10-13T20:43:56.204Z,98825.41
2022-10-13T20:46:26.045Z,98818.31
2022-10-13T20:51:40.712Z,98818.31
2022-10-13T20:54:07.699Z,98819.94
2022-10-13T20:56:34.073Z,98813.66
2022-10-13T20:59:24.050Z,98803.09
2022-10-13T21:01:50.429Z,98803.41
2022-10-13T21:04:16.833Z,98815.72
2022-10-13T21:06:43.403Z,98804.03
2022-10-13T21:09:09.943Z,98796.75
2022-10-13T21:11:36.510Z,98802.22
2022-10-13T21:14:06.676Z,98802.81
2022-10-13T21:16:33.219Z,98798.78
2022-10-13T21:18:59.677Z,98800.22
2022-10-13T21:21:31.323Z,98802.44
2022-10-13T21:24:04.390Z,98812.03
2022-10-13T21:26:32.274Z,98806.91
2022-10-13T21:28:59.383Z,98806.69
2022-10-13T21:31:26.450Z,98810.22
2022-10-13T21:33:53.577Z,98813.56
2022-10-13T21:36:31.669Z,98814.69
2022-10-13T21:39:00.403Z,98815.00
2022-10-13T21:41:28.010Z,98821.25
2022-10-13T21:43:54.779Z,98814.19
2022-10-13T21:46:25.841Z,98813.34
2022-10-13T21:48:54.138Z,98809.03
2022-10-13T21:51:25.845Z,98817.19
2022-10-13T21:53:54.871Z,98810.94
2022-10-13T21:56:22.229Z,98810.16
2022-10-13T21:58:49.231Z,98810.94
2022-10-13T22:01:19.825Z,98816.72
2022-10-13T22:03:47.130Z,98813.97
2022-10-13T22:06:19.287Z,98815.91
2022-10-13T22:08:49.435Z,98815.91
2022-10-13T22:11:16.725Z,98811.56
2022-10-13T22:13:43.076Z,98815.41
2022-10-13T22:16:12.707Z,98815.09
2022-10-13T22:18:39.107Z,98817.03
2022-10-13T22:21:21.119Z,98819.75
2022-10-13T22:23:48.173Z,98821.66
2022-10-13T22:26:17.044Z,98827.91
2022-10-13T22:28:44.159Z,98829.84
2022-10-13T22:31:13.872Z,98825.19
2022-10-13T22:33:41.912Z,98825.19
2022-10-13T22:36:10.651Z,98822.47
2022-10-13T22:38:37.088Z,98824.38
2022-10-13T22:41:05.828Z,98816.50
2022-10-13T22:43:32.749Z,98823.59
2022-10-13T22:45:59.240Z,98822.47
2022-10-13T22:48:25.619Z,98818.13
2022-10-13T22:50:52.188Z,98819.75
2022-10-13T22:53:18.860Z,98817.03
2022-10-13T22:55:45.501Z,98817.03
2022-10-13T22:58:12.062Z,98810.75
2022-10-13T23:00:39.171Z,98816.00
2022-10-13T23:03:06.217Z,98814.41
2022-10-13T23:05:32.701Z,98813.38
2022-10-13T23:07:59.116Z,98824.91
2022-10-13T23:10:25.677Z,98816.81
2022-10-13T23:12:52.074Z,98816.03
2022-10-13T23:15:18.435Z,98814.63
2022-10-13T23:17:45.217Z,98821.69
2022-10-13T23:20:12.050Z,98817.84
2022-10-13T23:22:38.436Z,98810.78
2022-10-13T23:25:05.101Z,98810.25
2022-10-13T23:27:31.456Z,98813.00
2022-10-13T23:29:57.823Z,98809.78
2022-10-13T23:32:24.243Z,98811.69
2022-10-13T23:34:50.729Z,98810.88
2022-10-13T23:37:17.653Z,98806.56
2022-10-13T23:39:43.984Z,98812.00
2022-10-13T23:42:10.390Z,98810.09
2022-10-13T23:44:36.704Z,98813.59
2022-10-13T23:47:03.909Z,98811.19
2022-10-13T23:49:30.255Z,98812.00
2022-10-13T23:51:56.676Z,98815.84
2022-10-13T23:54:23.019Z,98814.22
2022-10-13T23:56:49.379Z,98811.50
2022-10-13T23:59:15.763Z,98806.06
